Time;durP1;ratioP1;P1;durP2;ratioP2;P2;SDS_P1;SDS_P2;PMS_P1;PMS_P2;Temp;Humidity;BMP_temperature;BMP_pressure;BME280_temperature;BME280_humidity;BME280_pressure;Samples;Min_cycle;Max_cycle;Signal;HPM_P1;HPM_P2
2021/09/28 00:00:08;;;;;;;15.68;5.28;;;16.80;99.90;;;17.19;74.93;101943.47;4957750;29;20051;-70
2021/09/28 00:02:39;;;;;;;13.98;4.72;;;16.80;99.90;;;17.17;74.75;101941.69;4957790;29;20141;-70
2021/09/28 00:05:09;;;;;;;16.77;4.93;;;16.80;99.90;;;17.15;74.78;101943.50;4957650;29;20409;-70
2021/09/28 00:07:38;;;;;;;18.58;5.45;;;16.80;99.90;;;17.13;74.83;101953.31;4957587;29;20051;-70
2021/09/28 00:10:08;;;;;;;18.73;5.40;;;16.80;99.90;;;17.09;74.86;101954.28;4957346;29;20095;-70
2021/09/28 00:12:36;;;;;;;18.45;5.38;;;16.70;99.90;;;17.07;74.84;101950.72;4957421;29;20147;-70
2021/09/28 00:15:07;;;;;;;15.23;5.07;;;16.70;99.90;;;16.90;74.66;101922.47;4957401;29;20421;-70
2021/09/28 00:17:35;;;;;;;15.82;5.13;;;16.70;99.90;;;16.88;74.81;101919.81;4957562;29;20102;-70
2021/09/28 00:20:06;;;;;;;19.60;5.10;;;16.70;99.90;;;17.01;74.76;101944.59;4957368;29;20138;-70
2021/09/28 00:22:34;;;;;;;13.90;5.13;;;16.60;99.90;;;17.01;75.02;101947.28;4957442;29;20062;-71
2021/09/28 00:25:06;;;;;;;12.45;4.90;;;16.60;99.90;;;16.97;74.97;101958.91;4957482;29;20126;-71
2021/09/28 00:27:34;;;;;;;21.23;5.75;;;16.60;99.90;;;16.74;74.84;101926.25;4957080;29;20505;-70
2021/09/28 00:30:04;;;;;;;14.82;5.05;;;16.60;99.90;;;16.77;74.79;101943.13;4956141;29;20464;-70
2021/09/28 00:32:32;;;;;;;16.00;5.23;;;16.50;99.90;;;16.82;74.63;101959.97;4956850;29;20060;-70
2021/09/28 00:35:01;;;;;;;16.17;5.13;;;16.50;99.90;;;16.80;74.32;101959.13;4956830;29;20122;-70
2021/09/28 00:37:29;;;;;;;18.85;4.93;;;16.40;99.90;;;16.59;74.16;101939.81;4957068;29;20039;-71
2021/09/28 00:39:58;;;;;;;19.75;4.82;;;16.40;99.90;;;16.74;74.32;101975.22;4956754;29;20049;-71
2021/09/28 00:42:28;;;;;;;15.40;4.97;;;16.40;99.90;;;16.72;74.57;101965.47;4956981;29;20062;-71
2021/09/28 00:44:56;;;;;;;14.60;5.03;;;16.40;99.90;;;16.80;74.71;101974.28;4956965;29;20044;-70
2021/09/28 00:47:24;;;;;;;17.38;4.65;;;16.40;99.90;;;16.87;74.54;101970.63;4939706;29;20051;-70
2021/09/28 00:49:53;;;;;;;20.17;5.30;;;16.40;99.90;;;16.71;74.77;101943.19;4957025;29;20054;-70
2021/09/28 00:52:22;;;;;;;20.52;5.97;;;16.50;99.90;;;16.75;74.53;101950.28;4956727;29;20130;-71
2021/09/28 00:54:50;;;;;;;16.73;4.95;;;16.40;99.90;;;16.76;74.40;101962.72;4955424;28;20097;-70
2021/09/28 00:57:20;;;;;;;16.30;4.85;;;16.50;99.90;;;16.77;74.36;101966.28;4956911;29;20065;-70
2021/09/28 00:59:50;;;;;;;19.23;4.63;;;16.40;99.90;;;16.70;74.60;101970.84;4956458;29;20099;-70
2021/09/28 01:02:19;;;;;;;22.23;5.05;;;16.40;99.90;;;16.75;75.19;101985.03;4956575;29;20047;-70
2021/09/28 01:04:48;;;;;;;17.63;5.45;;;16.30;99.90;;;16.73;75.60;101977.91;4956224;29;20055;-70
2021/09/28 01:07:16;;;;;;;14.77;4.65;;;16.30;99.90;;;16.67;75.55;101961.94;4956259;29;20043;-70
2021/09/28 01:09:45;;;;;;;15.85;5.22;;;16.30;99.90;;;16.71;75.90;101975.28;4956171;29;20083;-70
2021/09/28 01:12:13;;;;;;;14.93;4.80;;;16.30;99.90;;;16.66;76.20;101978.91;4956318;29;20075;-70
2021/09/28 01:14:44;;;;;;;16.90;4.90;;;16.30;99.90;;;16.60;76.41;101982.53;4956393;29;20066;-70
2021/09/28 01:17:17;;;;;;;17.98;5.22;;;16.30;99.90;;;16.63;76.46;101978.91;4956675;29;20049;-70
2021/09/28 01:19:46;;;;;;;14.93;4.50;;;16.20;99.90;;;16.54;76.59;101979.03;4956377;29;20413;-70
2021/09/28 01:22:18;;;;;;;16.85;4.85;;;16.20;99.90;;;16.37;76.77;101960.50;4956278;29;20134;-70
2021/09/28 01:24:49;;;;;;;16.13;5.47;;;16.20;99.90;;;16.54;76.82;101982.59;4955980;29;20051;-70
2021/09/28 01:27:18;;;;;;;17.67;5.00;;;16.10;99.90;;;16.58;76.63;101979.00;4956526;29;20122;-70
2021/09/28 01:29:46;;;;;;;18.50;4.60;;;16.20;99.90;;;16.58;76.76;101979.00;4938824;29;20146;-70
2021/09/28 01:32:15;;;;;;;15.35;4.80;;;16.20;99.90;;;16.61;76.60;101980.72;4955767;29;20499;-70
2021/09/28 01:34:43;;;;;;;15.70;4.85;;;16.20;99.90;;;16.56;76.76;101979.91;4938801;29;20045;-70
2021/09/28 01:37:11;;;;;;;17.23;4.80;;;16.20;99.90;;;16.58;76.66;101979.00;4956267;29;20094;-70
2021/09/28 01:39:41;;;;;;;17.63;4.45;;;16.20;99.90;;;16.59;76.20;101978.06;4955930;29;20041;-71
2021/09/28 01:42:10;;;;;;;14.13;4.60;;;16.20;99.90;;;16.57;76.36;101982.56;4956128;29;20095;-70
2021/09/28 01:44:38;;;;;;;17.83;5.38;;;16.20;99.90;;;16.51;76.28;101979.94;4954590;29;20145;-70
2021/09/28 01:47:07;;;;;;;17.67;5.10;;;16.20;99.90;;;16.35;76.45;101951.63;4955574;29;20055;-70
2021/09/28 01:49:35;;;;;;;18.77;4.97;;;16.10;99.90;;;16.48;76.37;101977.31;4954655;29;20043;-70
2021/09/28 01:52:04;;;;;;;16.55;4.50;;;16.10;99.90;;;16.51;76.21;101982.63;4955799;29;20075;-70
2021/09/28 01:54:33;;;;;;;19.63;5.90;;;16.20;99.90;;;16.45;76.11;101981.78;4955422;29;20043;-70
2021/09/28 01:57:03;;;;;;;16.88;5.95;;;16.10;99.90;;;16.45;76.33;101976.44;4955840;29;20031;-70
2021/09/28 01:59:32;;;;;;;13.00;4.22;;;16.10;99.90;;;16.41;76.32;101980.94;4955671;29;20391;-70
2021/09/28 02:02:01;;;;;;;18.70;4.60;;;16.00;99.90;;;16.34;76.58;101989.03;4955302;29;20039;-70
2021/09/28 02:04:30;;;;;;;14.82;4.50;;;16.00;99.90;;;16.05;76.93;101949.25;4955266;29;20051;-70
2021/09/28 02:06:59;;;;;;;19.10;4.97;;;15.90;99.90;;;16.32;77.19;101997.03;4954917;28;20470;-70
2021/09/28 02:09:27;;;;;;;16.67;5.43;;;15.90;99.90;;;16.32;77.05;101994.34;4955505;29;20043;-70
2021/09/28 02:11:55;;;;;;;18.08;5.40;;;15.90;99.90;;;16.20;77.13;101976.66;4955433;29;20079;-70
2021/09/28 02:14:28;;;;;;;16.63;5.05;;;16.00;99.90;;;16.21;76.84;101964.22;4955120;29;20106;-70
2021/09/28 02:16:58;;;;;;;16.33;4.95;;;16.00;99.90;;;16.32;76.74;101993.50;4955190;29;20067;-70
2021/09/28 02:19:26;;;;;;;24.42;6.35;;;16.00;99.90;;;16.30;76.75;101988.16;4955295;29;20610;-70
2021/09/28 02:21:55;;;;;;;17.02;5.95;;;15.90;99.90;;;16.31;76.61;101995.28;4955385;29;20130;-70
2021/09/28 02:24:23;;;;;;;16.83;5.32;;;15.90;99.90;;;16.31;76.77;101997.94;4954992;29;20524;-70
2021/09/28 02:26:52;;;;;;;23.35;5.20;;;15.90;99.90;;;16.30;76.79;102001.50;4954963;29;20106;-70
2021/09/28 02:29:21;;;;;;;17.73;5.10;;;15.90;99.90;;;15.68;76.62;101892.66;4954986;29;20497;-70
2021/09/28 02:31:50;;;;;;;22.35;5.75;;;16.00;99.90;;;16.31;76.82;101989.03;4955006;29;20553;-70
2021/09/28 02:34:19;;;;;;;23.00;5.22;;;16.00;99.90;;;16.33;76.64;101998.81;4953894;29;20051;-70
2021/09/28 02:36:47;;;;;;;16.50;5.55;;;16.00;99.90;;;16.36;76.47;101992.53;4955167;29;20433;-70
2021/09/28 02:39:16;;;;;;;17.98;5.75;;;16.00;99.90;;;16.38;76.42;101996.09;4954896;29;20199;-70
2021/09/28 02:41:44;;;;;;;17.42;5.30;;;16.00;99.90;;;16.38;76.30;101996.97;4955142;29;20520;-70
2021/09/28 02:44:16;;;;;;;16.17;5.07;;;16.00;99.90;;;16.38;76.09;101996.09;4955195;29;20058;-70
2021/09/28 02:46:45;;;;;;;15.93;5.53;;;16.00;99.90;;;16.33;76.10;101988.13;4955097;29;20378;-70
2021/09/28 02:49:15;;;;;;;18.40;5.88;;;16.00;99.90;;;16.30;75.93;101993.50;4954866;29;20564;-70
2021/09/28 02:51:44;;;;;;;16.55;5.20;;;16.00;99.90;;;16.24;76.03;101996.22;4954861;29;20490;-70
2021/09/28 02:54:12;;;;;;;13.90;5.50;;;16.00;99.90;;;16.26;75.98;102003.31;4954706;29;20591;-70
2021/09/28 02:56:41;;;;;;;15.48;5.35;;;15.90;99.90;;;16.26;75.89;102006.00;4954644;29;20059;-70
2021/09/28 02:59:09;;;;;;;15.80;5.55;;;15.90;99.90;;;16.23;75.97;102002.47;4955417;29;20549;-70
2021/09/28 03:01:37;;;;;;;18.75;5.38;;;15.90;99.90;;;16.18;76.13;102007.84;4954669;29;20071;-70
2021/09/28 03:04:06;;;;;;;19.50;5.60;;;15.80;99.90;;;16.17;76.21;102014.09;4937848;29;20059;-70
2021/09/28 03:06:36;;;;;;;14.10;5.13;;;15.80;99.90;;;16.21;76.50;102017.63;4955161;29;20059;-70
2021/09/28 03:09:05;;;;;;;22.57;5.13;;;15.80;99.90;;;15.57;76.22;101907.88;4954615;29;20485;-71
2021/09/28 03:11:33;;;;;;;16.17;5.80;;;15.80;99.90;;;16.18;76.48;102009.66;4954674;29;20347;-70
2021/09/28 03:14:02;;;;;;;14.82;5.60;;;15.80;99.90;;;16.20;76.50;102008.72;4954797;29;20035;-70
2021/09/28 03:16:30;;;;;;;15.68;5.03;;;15.80;99.90;;;16.11;76.83;102018.59;4937643;28;20122;-71
2021/09/28 03:18:59;;;;;;;16.38;6.13;;;15.80;99.90;;;16.07;77.13;102004.41;4957650;29;20054;-70
2021/09/28 03:21:27;;;;;;;19.77;6.07;;;15.70;99.90;;;16.09;76.99;102007.94;4940904;29;20453;-70
2021/09/28 03:23:57;;;;;;;15.20;4.90;;;15.80;99.90;;;16.13;76.86;102009.69;4958150;29;20114;-71
2021/09/28 03:26:27;;;;;;;21.80;5.33;;;15.80;99.90;;;16.03;76.78;101993.75;4958230;29;20090;-70
2021/09/28 03:28:55;;;;;;;22.60;5.95;;;15.80;99.90;;;16.03;76.53;101996.41;4958070;29;20317;-71
2021/09/28 03:31:23;;;;;;;16.90;5.63;;;15.80;99.90;;;16.13;76.54;102016.78;4958328;29;20059;-70
2021/09/28 03:33:52;;;;;;;20.15;5.63;;;15.80;99.90;;;16.07;76.39;102025.75;4958175;29;20090;-70
2021/09/28 03:36:20;;;;;;;18.83;6.22;;;15.70;99.90;;;16.03;76.35;102026.66;4957938;29;20105;-70
2021/09/28 03:38:49;;;;;;;14.68;5.60;;;15.70;99.90;;;15.97;76.39;102016.03;4957868;29;20126;-71
2021/09/28 03:41:18;;;;;;;13.88;4.45;;;15.70;99.90;;;15.96;76.54;102024.06;4958078;29;20444;-70
2021/09/28 03:43:47;;;;;;;20.65;5.90;;;15.60;99.90;;;15.87;76.74;102017.00;4958084;29;20078;-70
2021/09/28 03:46:16;;;;;;;16.83;5.40;;;15.60;99.90;;;15.87;76.66;102030.34;4957784;29;20398;-70
2021/09/28 03:48:45;;;;;;;19.73;5.88;;;15.50;99.90;;;15.77;76.99;102019.78;4957777;29;20126;-70
2021/09/28 03:51:13;;;;;;;17.65;4.90;;;15.50;99.90;;;15.67;77.32;102034.06;4957922;29;20438;-70
2021/09/28 03:53:42;;;;;;;22.42;5.88;;;15.40;99.90;;;15.69;77.45;102016.25;4957619;29;20081;-70
2021/09/28 03:56:10;;;;;;;20.95;5.30;;;15.40;99.90;;;15.66;77.40;102030.50;4958190;29;20105;-70
2021/09/28 03:58:40;;;;;;;19.02;5.22;;;15.30;99.90;;;15.58;77.45;102028.78;4957554;29;20051;-70
2021/09/28 04:01:08;;;;;;;17.53;5.53;;;15.30;99.90;;;15.61;77.33;102031.44;4957542;29;20050;-71
2021/09/28 04:03:37;;;;;;;19.58;5.22;;;15.30;99.90;;;15.58;77.65;102039.47;4957478;29;20087;-70
2021/09/28 04:06:05;;;;;;;18.42;5.13;;;15.20;99.90;;;15.51;77.86;102035.94;4957696;29;20059;-69
2021/09/28 04:08:34;;;;;;;18.65;5.15;;;15.20;99.90;;;15.44;78.50;102038.66;4956366;29;20078;-73
2021/09/28 04:11:02;;;;;;;19.50;5.97;;;15.10;99.90;;;15.48;78.76;102030.63;4957621;29;20047;-70
2021/09/28 04:13:30;;;;;;;15.52;5.53;;;15.10;99.90;;;15.51;78.87;102035.94;4957271;29;20126;-71
2021/09/28 04:16:05;;;;;;;22.65;6.03;;;15.20;99.90;;;15.53;79.61;102035.91;4957241;29;20047;-71
2021/09/28 04:18:33;;;;;;;16.30;5.30;;;15.20;99.90;;;15.59;80.06;102035.88;4957302;29;20074;-73
2021/09/28 04:21:02;;;;;;;16.88;5.50;;;15.20;99.90;;;15.64;80.49;102047.44;4957343;29;20631;-74
2021/09/28 04:23:30;;;;;;;25.67;5.78;;;15.30;99.90;;;15.66;80.65;102032.31;4957163;29;20070;-73
2021/09/28 04:25:59;;;;;;;18.35;5.18;;;15.30;99.90;;;15.65;81.00;102038.53;4957185;29;20031;-74
2021/09/28 04:28:27;;;;;;;14.40;5.28;;;15.30;99.90;;;15.73;80.78;102032.25;4956786;28;20051;-74
2021/09/28 04:30:56;;;;;;;19.58;5.03;;;15.40;99.90;;;15.73;80.64;102028.69;4957259;29;20126;-74
2021/09/28 04:33:26;;;;;;;17.85;5.38;;;15.40;99.90;;;15.74;80.98;102030.44;4956948;29;20076;-74
2021/09/28 04:35:54;;;;;;;19.90;5.18;;;15.40;99.90;;;15.79;80.75;102037.53;4957154;29;20039;-73
2021/09/28 04:38:22;;;;;;;13.25;5.22;;;15.40;99.90;;;15.83;80.72;102049.94;4939982;29;20449;-75
2021/09/28 04:40:51;;;;;;;14.43;4.93;;;15.50;99.90;;;15.86;80.79;102043.72;4956741;29;20564;-74
2021/09/28 04:43:19;;;;;;;18.00;4.95;;;15.50;99.90;;;15.86;80.59;102046.38;4956818;29;20043;-74
2021/09/28 04:45:48;;;;;;;16.70;5.30;;;15.50;99.90;;;15.68;80.40;102019.84;4956715;29;20244;-74
2021/09/28 04:48:16;;;;;;;12.13;4.75;;;15.50;99.90;;;15.78;80.48;102041.09;4956642;29;20043;-74
2021/09/28 04:50:46;;;;;;;17.35;5.18;;;15.40;99.90;;;15.77;80.13;102047.34;4956630;29;20126;-74
2021/09/28 04:53:15;;;;;;;17.02;5.35;;;15.40;99.90;;;15.75;79.86;102041.13;4956673;29;20091;-74
2021/09/28 04:55:43;;;;;;;12.93;4.93;;;15.50;99.90;;;15.71;80.06;102051.81;4956509;29;20572;-74
2021/09/28 04:58:11;;;;;;;13.05;4.93;;;15.40;99.90;;;15.75;79.75;102045.56;4955177;29;20047;-74
2021/09/28 05:00:40;;;;;;;18.60;5.22;;;15.40;99.90;;;15.78;79.62;102050.88;4956373;29;20094;-74
2021/09/28 05:03:08;;;;;;;18.40;5.32;;;15.40;99.90;;;15.86;79.33;102051.72;4956399;29;20077;-74
2021/09/28 05:05:37;;;;;;;12.10;4.70;;;15.50;99.90;;;15.72;79.36;102051.81;4939585;29;20142;-74
2021/09/28 05:08:07;;;;;;;17.05;5.32;;;15.50;99.90;;;15.70;79.32;102052.72;4956527;29;20055;-74
2021/09/28 05:10:35;;;;;;;14.98;4.95;;;15.40;99.90;;;15.74;79.23;102058.03;4956220;29;20106;-74
2021/09/28 05:13:04;;;;;;;14.55;4.90;;;15.40;99.90;;;15.74;78.98;102059.78;4956183;29;20130;-74
2021/09/28 05:15:33;;;;;;;19.55;5.85;;;15.40;99.90;;;15.54;79.25;102025.28;4956362;29;20043;-74
2021/09/28 05:18:01;;;;;;;18.45;5.80;;;15.40;99.90;;;15.70;79.21;102058.94;4956078;29;20082;-74
2021/09/28 05:20:30;;;;;;;16.50;5.15;;;15.40;99.90;;;15.63;79.06;102040.31;4955989;29;20047;-74
2021/09/28 05:22:58;;;;;;;16.33;5.32;;;15.40;99.90;;;15.76;79.03;102063.34;4956427;29;20544;-74
2021/09/28 05:25:28;;;;;;;13.70;4.95;;;15.40;99.90;;;15.64;78.92;102044.75;4955797;29;20047;-74
2021/09/28 05:27:56;;;;;;;14.23;5.10;;;15.40;99.90;;;15.59;78.93;102054.56;4956085;29;20467;-74
2021/09/28 05:30:25;;;;;;;15.60;5.55;;;15.40;99.90;;;15.67;78.85;102066.06;4956068;29;20043;-74
2021/09/28 05:32:54;;;;;;;16.73;5.45;;;15.40;99.90;;;15.64;78.95;102068.78;4956050;29;20047;-74
2021/09/28 05:35:22;;;;;;;14.80;4.65;;;15.30;99.90;;;15.67;78.74;102077.63;4955996;29;20495;-74
2021/09/28 05:37:52;;;;;;;15.18;5.18;;;15.30;99.90;;;15.71;78.60;102070.50;4955688;29;20051;-74
2021/09/28 05:40:21;;;;;;;22.63;5.43;;;15.40;99.90;;;15.67;78.66;102074.06;4955090;28;20044;-74
2021/09/28 05:42:51;;;;;;;15.18;5.45;;;15.40;99.90;;;15.69;78.72;102089.19;4955820;29;20071;-74
2021/09/28 05:45:19;;;;;;;16.63;5.13;;;15.40;99.90;;;15.73;78.55;102072.28;4956020;29;20062;-73
2021/09/28 05:47:48;;;;;;;13.52;5.13;;;15.40;99.90;;;15.79;78.40;102077.56;4938587;29;20460;-73
2021/09/28 05:50:20;;;;;;;17.10;5.35;;;15.40;99.90;;;15.71;78.27;102067.81;4955619;29;20402;-74
2021/09/28 05:52:48;;;;;;;15.30;5.53;;;15.40;99.90;;;15.74;78.39;102079.34;4938482;29;20051;-74
2021/09/28 05:55:17;;;;;;;12.82;4.95;;;15.40;99.90;;;15.58;78.32;102044.81;4955164;29;20078;-73
2021/09/28 05:57:45;;;;;;;13.80;4.88;;;15.40;99.90;;;15.71;78.32;102078.50;4955489;29;20548;-74
2021/09/28 06:00:16;;;;;;;16.38;5.18;;;15.40;99.90;;;15.70;78.22;102082.94;4955797;29;20078;-74
2021/09/28 06:02:45;;;;;;;14.00;5.30;;;15.40;99.90;;;15.68;78.06;102076.72;4955345;29;20051;-74
2021/09/28 06:05:14;;;;;;;20.95;5.88;;;15.40;99.90;;;15.70;77.91;102079.41;4955504;29;20071;-74
2021/09/28 06:07:42;;;;;;;13.65;5.13;;;15.40;99.90;;;15.73;77.76;102074.94;4955426;29;20489;-75
2021/09/28 06:10:11;;;;;;;20.50;5.65;;;15.40;99.90;;;15.66;77.70;102086.53;4955172;29;20129;-74
2021/09/28 06:12:40;;;;;;;16.35;5.07;;;15.50;99.90;;;15.84;77.76;102082.84;4955088;29;20054;-74
2021/09/28 06:15:10;;;;;;;18.85;5.20;;;15.50;99.90;;;15.64;77.95;102074.09;4955022;29;20067;-75
2021/09/28 06:17:39;;;;;;;14.73;5.25;;;15.50;99.90;;;15.67;78.07;102076.75;4955338;29;20054;-75
2021/09/28 06:20:10;;;;;;;17.27;5.70;;;15.50;99.90;;;15.56;78.65;102067.94;4955396;29;20074;-75
2021/09/28 06:22:39;;;;;;;14.93;4.95;;;15.50;99.90;;;15.66;78.42;102073.19;4955410;29;20306;-75
2021/09/28 06:25:08;;;;;;;20.17;5.80;;;15.50;99.90;;;15.76;78.61;102074.00;4955098;29;20474;-75
2021/09/28 06:27:37;;;;;;;21.00;6.00;;;15.60;99.90;;;16.06;78.46;102085.38;4955250;29;20039;-75
2021/09/28 06:30:07;;;;;;;15.63;5.35;;;15.80;99.90;;;16.30;78.01;102078.94;4954986;29;20074;-75
2021/09/28 06:32:35;;;;;;;20.05;5.78;;;16.10;99.90;;;16.58;77.03;102084.97;4955313;29;20090;-76
2021/09/28 06:35:06;;;;;;;14.70;5.45;;;16.30;99.90;;;16.95;75.92;102092.59;4954811;29;20577;-76
2021/09/28 06:37:35;;;;;;;18.63;5.38;;;16.70;99.90;;;17.21;74.66;102092.28;4955179;29;20047;-76
2021/09/28 06:40:04;;;;;;;21.65;5.70;;;17.00;99.90;;;17.38;73.91;102092.94;4955060;29;20043;-76
2021/09/28 06:42:33;;;;;;;23.65;5.75;;;17.20;99.90;;;17.61;73.00;102063.25;4955134;29;20416;-76
2021/09/28 06:45:02;;;;;;;16.77;5.70;;;17.50;99.90;;;17.93;72.18;102104.72;4937770;29;20047;-76
2021/09/28 06:47:31;;;;;;;18.05;5.32;;;17.60;99.90;;;18.10;71.35;102085.69;4953726;29;20058;-76
2021/09/28 06:49:59;;;;;;;18.77;5.00;;;17.90;99.90;;;18.30;70.56;102102.34;4955434;29;20055;-76
2021/09/28 06:52:29;;;;;;;21.90;5.63;;;18.00;99.90;;;18.37;69.64;102084.38;4958437;28;20090;-76
2021/09/28 06:54:58;;;;;;;20.58;6.22;;;18.20;99.90;;;18.58;69.57;102095.63;4958462;29;20039;-72
2021/09/28 06:57:26;;;;;;;12.73;4.88;;;18.30;99.90;;;18.69;68.86;102088.31;4958797;29;20049;-78
2021/09/28 06:59:54;;;;;;;15.90;5.18;;;18.40;99.90;;;18.85;68.32;102105.00;4958858;29;20063;-80
2021/09/28 07:02:23;;;;;;;15.60;5.22;;;18.50;99.90;;;18.97;68.31;102101.19;4957609;29;20106;-78
2021/09/28 07:04:51;;;;;;;11.98;4.88;;;18.60;99.90;;;18.85;68.02;102076.34;4958532;29;20039;-79
2021/09/28 07:07:20;;;;;;;12.73;4.65;;;18.70;99.90;;;19.12;67.99;102099.09;4958691;29;20402;-79
2021/09/28 07:09:49;;;;;;;15.60;4.90;;;18.90;99.90;;;19.34;67.52;102110.28;4958351;29;20122;-78
2021/09/28 07:12:18;;;;;;;16.43;5.17;;;19.00;99.90;;;19.44;67.14;102101.13;4958422;29;20490;-78
2021/09/28 07:14:47;;;;;;;16.52;5.45;;;19.20;99.90;;;19.49;66.89;102089.38;4958249;29;20058;-75
2021/09/28 07:17:15;;;;;;;17.23;5.72;;;19.30;99.90;;;19.77;66.25;102108.47;4958092;29;20047;-76
2021/09/28 07:19:43;;;;;;;17.90;5.10;;;19.50;99.90;;;19.80;65.38;102108.41;4958619;29;20044;-76
2021/09/28 07:22:12;;;;;;;14.90;4.82;;;19.50;99.90;;;19.98;65.00;102117.81;4958578;29;20118;-79
2021/09/28 07:24:40;;;;;;;12.77;4.53;;;19.70;99.90;;;20.11;64.63;102117.50;4958160;29;20052;-78
2021/09/28 07:27:10;;;;;;;15.88;5.57;;;19.80;99.90;;;20.17;64.35;102103.91;4958702;29;20117;-79
2021/09/28 07:29:39;;;;;;;16.17;5.07;;;20.00;99.90;;;20.30;63.59;102104.56;4958192;29;20050;-80
2021/09/28 07:32:08;;;;;;;11.90;5.03;;;20.10;99.90;;;20.54;63.34;102131.69;4957728;29;20461;-77
2021/09/28 07:34:36;;;;;;;12.40;4.68;;;20.20;99.90;;;18.69;63.08;101809.50;4940948;29;20147;-77
2021/09/28 07:37:05;;;;;;;15.23;5.13;;;20.30;99.90;;;20.49;62.83;102120.19;4958239;29;20098;-75
2021/09/28 07:39:50;;;;;;;17.70;4.97;;;20.30;99.90;;;20.37;62.22;102124.97;4957972;29;20166;-74
2021/09/28 07:42:20;;;;;;;14.80;5.10;;;20.20;99.90;;;19.88;62.32;102050.00;4958114;29;20121;-74
2021/09/28 07:44:49;;;;;;;13.07;4.50;;;20.00;99.90;;;20.12;62.33;102129.13;4940952;29;20047;-73
2021/09/28 07:47:18;;;;;;;11.95;4.40;;;19.80;99.90;;;20.25;62.80;102120.78;4958279;29;20330;-73
2021/09/28 07:49:46;;;;;;;10.07;4.57;;;19.90;99.90;;;20.22;62.69;102095.78;4957770;29;20043;-76
2021/09/28 07:52:16;;;;;;;15.88;4.85;;;20.10;99.90;;;20.65;62.00;102128.75;4958015;29;20039;-76
2021/09/28 07:54:44;;;;;;;12.68;4.50;;;20.30;99.90;;;20.80;61.37;102131.03;4958158;29;20110;-76
2021/09/28 07:57:12;;;;;;;15.05;4.57;;;20.50;99.90;;;20.94;60.87;102136.06;4957987;29;20043;-76
2021/09/28 07:59:42;;;;;;;19.23;4.85;;;20.60;99.90;;;21.06;59.85;102125.00;4957497;29;20055;-75
2021/09/28 08:02:11;;;;;;;14.90;5.18;;;20.70;99.90;;;21.15;59.92;102130.13;4957789;29;20051;-78
2021/09/28 08:04:41;;;;;;;17.52;5.70;;;20.90;99.90;;;21.22;59.76;102126.31;4956782;28;20035;-75
2021/09/28 08:07:12;;;;;;;16.00;4.60;;;20.90;99.90;;;21.34;59.59;102139.44;4957775;29;20375;-76
2021/09/28 08:09:41;;;;;;;14.68;4.57;;;21.00;99.90;;;21.31;59.35;102139.53;4957416;29;20609;-76
2021/09/28 08:12:11;;;;;;;12.30;4.55;;;21.00;99.90;;;21.35;59.60;102108.91;4957122;29;20047;-76
2021/09/28 08:14:39;;;;;;;12.52;4.15;;;21.10;99.90;;;21.60;59.14;102125.22;4957517;29;20054;-76
2021/09/28 08:17:09;;;;;;;15.30;4.70;;;21.30;99.90;;;21.67;58.99;102130.38;4957169;29;20478;-75
2021/09/28 08:19:40;;;;;;;11.75;4.53;;;21.40;99.90;;;21.55;58.52;102117.25;4957453;29;20094;-75
2021/09/28 08:22:11;;;;;;;14.38;4.68;;;21.30;99.90;;;21.46;58.42;102102.28;4940069;29;20118;-76
2021/09/28 08:24:42;;;;;;;14.10;4.70;;;21.40;99.90;;;21.77;58.03;102123.78;4957125;29;20102;-76
2021/09/28 08:29:59;;;;;;;14.15;4.78;;;21.50;99.90;;;21.89;58.20;102134.19;4957364;29;20106;-76
2021/09/28 08:32:29;;;;;;;14.60;4.38;;;21.60;99.90;;;22.14;57.23;102137.03;4957504;29;20062;-75
2021/09/28 08:34:58;;;;;;;17.02;5.13;;;21.80;99.90;;;22.22;56.36;102146.63;4957276;29;20043;-76
2021/09/28 08:37:27;;;;;;;16.38;5.07;;;22.00;99.90;;;22.33;56.27;102141.78;4956679;29;20134;-76
2021/09/28 08:39:56;;;;;;;13.45;4.90;;;22.10;99.90;;;22.23;55.68;102144.81;4956881;29;20602;-76
2021/09/28 08:42:26;;;;;;;13.10;4.55;;;22.00;99.90;;;21.71;55.95;102115.88;4957029;29;20436;-76
2021/09/28 08:44:55;;;;;;;10.27;4.30;;;21.60;99.90;;;21.72;56.48;102143.72;4956779;29;20039;-76
2021/09/28 08:47:41;;;;;;;17.42;5.57;;;21.40;99.90;;;21.43;56.75;102137.34;4956959;29;20081;-76
2021/09/28 08:50:14;;;;;;;11.52;4.60;;;21.10;99.90;;;21.47;57.45;102130.06;4956685;29;20094;-75
2021/09/28 08:52:44;;;;;;;19.60;4.85;;;21.10;99.90;;;21.49;56.95;102142.56;4956838;29;20043;-76
2021/09/28 08:55:23;;;;;;;12.82;4.50;;;21.10;99.90;;;21.56;58.08;102145.97;4956658;29;20067;-75
2021/09/28 08:58:12;;;;;;;16.30;4.72;;;21.20;99.90;;;21.69;58.61;102119.53;4956397;29;20501;-75
2021/09/28 09:00:41;;;;;;;15.73;4.65;;;21.40;99.90;;;22.02;56.80;102135.59;4956340;29;20076;-75
2021/09/28 09:03:26;;;;;;;12.90;4.25;;;21.70;99.90;;;21.76;57.22;102134.56;4956301;29;20043;-75
2021/09/28 09:05:56;;;;;;;18.65;4.68;;;21.60;99.90;;;22.09;57.22;102139.84;4956673;29;20059;-75
2021/09/28 09:08:27;;;;;;;14.75;4.75;;;21.70;99.90;;;21.95;57.06;102116.97;4956604;29;20055;-75
2021/09/28 09:11:03;;;;;;;;;;;21.80;99.90;;;22.39;56.66;102141.59;4957019;29;20047;-75
2021/09/28 09:13:39;;;;;;;13.95;4.53;;;22.10;99.90;;;22.50;55.49;102146.59;4956786;29;19923;-75
2021/09/28 09:16:10;;;;;;;15.32;5.18;;;22.20;99.90;;;22.72;55.58;102139.59;4955218;28;20047;-75
2021/09/28 09:18:43;;;;;;;18.65;5.22;;;22.40;99.90;;;22.43;56.42;102136.97;4956007;29;20047;-75
2021/09/28 09:21:14;;;;;;;16.42;5.15;;;22.20;99.90;;;22.53;56.09;102134.84;4956121;29;20056;-75
2021/09/28 09:23:45;;;;;;;19.75;4.55;;;22.30;99.90;;;22.12;57.18;102110.13;4956148;29;20493;-75
2021/09/28 09:26:17;;;;;;;16.83;4.72;;;22.10;99.90;;;22.26;57.71;102133.94;4954813;29;20043;-75
2021/09/28 09:28:48;;;;;;;16.20;5.50;;;22.00;99.90;;;20.37;57.13;101814.06;4956208;29;20099;-75
2021/09/28 09:31:24;;;;;;;17.02;5.45;;;22.00;99.90;;;22.35;57.27;102128.25;4956388;29;20125;-75
2021/09/28 09:33:57;;;;;;;17.98;5.43;;;22.10;99.90;;;21.86;57.27;102131.59;4955849;29;20058;-75
2021/09/28 09:36:33;;;;;;;17.85;5.32;;;21.80;99.90;;;21.65;58.18;102134.03;5108268;27;1263071;-75
2021/09/28 09:39:03;;;;;;;;;;;21.50;99.90;;;21.06;59.32;102112.41;5130978;28;20043;-75
2021/09/28 09:41:33;;;;;;;18.95;5.70;;;21.10;99.90;;;21.03;60.20;102122.38;5130878;28;19923;-75
2021/09/28 09:44:04;;;;;;;;;;;20.90;99.90;;;21.01;61.34;102118.84;5131494;28;20043;-75
2021/09/28 09:46:47;;;;;;;23.00;6.05;;;20.80;99.90;;;21.60;60.50;102119.84;5130621;28;19926;-74
2021/09/28 09:49:21;;;;;;;19.52;5.22;;;21.20;99.90;;;21.43;59.71;102118.50;5130494;28;20066;-75
2021/09/28 09:51:54;;;;;;;20.58;6.05;;;21.30;99.90;;;21.84;58.76;102117.31;5130338;28;20051;-75
2021/09/28 09:54:32;;;;;;;18.52;5.05;;;21.50;99.90;;;22.13;59.08;102111.88;5130802;28;20052;-75
2021/09/28 09:57:05;;;;;;;15.55;5.07;;;21.80;99.90;;;22.01;58.15;102116.78;5130499;28;20399;-75
2021/09/28 09:59:34;;;;;;;17.58;5.93;;;21.80;99.90;;;22.13;58.45;102094.81;5130299;28;20065;-75
2021/09/28 10:02:05;;;;;;;23.50;6.10;;;22.00;99.90;;;22.17;58.05;102104.56;5130425;28;20039;-75
2021/09/28 10:04:34;;;;;;;18.75;6.05;;;22.00;99.90;;;22.39;56.81;102113.72;5130270;28;20316;-75
2021/09/28 10:07:05;;;;;;;22.02;5.85;;;22.10;99.90;;;22.55;56.79;102097.91;5130220;28;20039;-75
2021/09/28 10:09:37;;;;;;;;;;;22.30;99.90;;;22.79;56.04;102118.66;5131361;28;20122;-75
2021/09/28 10:12:09;;;;;;;21.20;5.80;;;22.50;99.90;;;22.37;55.69;102096.72;5130234;28;19919;-75
2021/09/28 10:14:44;;;;;;;18.88;6.28;;;22.30;99.90;;;21.93;56.67;102062.25;5130713;28;20074;-75
2021/09/28 10:17:40;;;;;;;15.48;5.97;;;21.90;99.90;;;22.41;57.27;102107.31;5130201;28;20054;-74
2021/09/28 10:20:10;;;;;;;19.98;6.78;;;22.10;99.90;;;22.61;57.33;102103.13;5121417;28;20071;-75